Terminal Aerodrome Forecast
Issued by NWS Bismarck, ND

Home | Current Version | Previous Version | Text Only | Print | Product List | Glossary On
Versions: 1 2 3 4 5 6 7 8 9 10 11 12 13 14 15 16 17 18 19
000
FTUS43 KBIS 221725
TAFBIS
TAF
KBIS 221725Z 2218/2318 30017G25KT P6SM FEW100 FEW250
     FM230200 33015KT P6SM SKC
     FM230300 35011KT P6SM SKC
     FM230500 01007KT P6SM SKC
     FM230800 VRB03KT P6SM SKC=

USA.gov is the U.S. government's official web portal to all federal, state and local government web resources and services.